createdAt,value
2022-10-26T00:00:26.293Z,3.83
2022-10-26T00:02:54.957Z,2.15
2022-10-26T00:05:22.542Z,2.75
2022-10-26T00:07:49.856Z,1.98
2022-10-26T00:10:16.693Z,2.67
2022-10-26T00:12:43.460Z,2.05
2022-10-26T00:15:10.494Z,2.40
2022-10-26T00:17:37.175Z,1.63
2022-10-26T00:20:04.178Z,2.42
2022-10-26T00:22:30.847Z,2.33
2022-10-26T00:24:57.551Z,2.40
2022-10-26T00:27:24.246Z,2.10
2022-10-26T00:29:50.927Z,2.33
2022-10-26T00:32:17.625Z,2.03
2022-10-26T00:34:44.424Z,2.08
2022-10-26T00:37:11.113Z,2.75
2022-10-26T00:39:37.796Z,2.33
2022-10-26T00:42:04.591Z,1.98
2022-10-26T00:44:49.184Z,2.30
2022-10-26T00:47:17.438Z,1.95
2022-10-26T00:49:46.671Z,2.13
2022-10-26T00:52:13.881Z,1.90
2022-10-26T00:54:40.547Z,2.47
2022-10-26T00:57:07.293Z,2.55
2022-10-26T00:59:33.981Z,1.92
2022-10-26T01:02:00.778Z,2.03
2022-10-26T01:04:27.454Z,2.72
2022-10-26T01:06:54.156Z,2.00
2022-10-26T01:09:20.814Z,1.92
2022-10-26T01:11:47.585Z,1.35
2022-10-26T01:14:14.432Z,2.40
2022-10-26T01:16:50.933Z,1.90
2022-10-26T01:19:54.380Z,2.20
2022-10-26T01:22:22.260Z,2.10
2022-10-26T01:25:17.067Z,2.20
2022-10-26T01:27:45.612Z,2.28
2022-10-26T01:30:19.274Z,2.17
2022-10-26T01:33:04.361Z,2.10
2022-10-26T01:35:51.649Z,3.35
2022-10-26T01:38:24.177Z,2.40
2022-10-26T01:40:56.672Z,2.15
2022-10-26T01:43:23.380Z,2.45
2022-10-26T01:45:50.120Z,1.95
2022-10-26T01:48:17.839Z,2.70
2022-10-26T01:50:45.411Z,2.47
2022-10-26T01:53:13.831Z,2.00
2022-10-26T01:55:51.035Z,1.95
2022-10-26T01:58:55.477Z,3.03
2022-10-26T02:01:58.902Z,2.38
2022-10-26T02:04:29.849Z,2.05
2022-10-26T02:07:35.372Z,1.77
2022-10-26T02:10:05.684Z,2.08
2022-10-26T02:12:44.295Z,1.77
2022-10-26T02:15:16.458Z,2.65
2022-10-26T02:17:54.164Z,3.35
2022-10-26T02:20:27.685Z,2.90
2022-10-26T02:22:55.206Z,2.38
2022-10-26T02:25:28.292Z,1.95
2022-10-26T02:28:09.901Z,2.58
2022-10-26T02:30:36.708Z,2.10
2022-10-26T02:33:03.506Z,2.55
2022-10-26T02:35:31.366Z,1.83
2022-10-26T02:37:59.713Z,3.38
2022-10-26T02:40:27.716Z,2.47
2022-10-26T02:42:55.397Z,4.38
2022-10-26T02:45:27.803Z,3.20
2022-10-26T02:47:54.487Z,2.25
2022-10-26T02:50:23.119Z,2.30
2022-10-26T02:53:09.441Z,1.92
2022-10-26T02:55:40.874Z,2.50
2022-10-26T02:58:11.871Z,1.60
2022-10-26T03:00:38.555Z,2.20
2022-10-26T03:03:05.238Z,2.40
2022-10-26T03:05:36.847Z,2.80
2022-10-26T03:08:03.627Z,1.80
2022-10-26T03:10:30.565Z,2.60
2022-10-26T03:12:57.231Z,2.42
2022-10-26T03:15:23.981Z,2.75
2022-10-26T03:17:50.904Z,3.03
2022-10-26T03:20:17.750Z,2.20
2022-10-26T03:22:44.542Z,3.08
2022-10-26T03:25:11.361Z,2.00
2022-10-26T03:27:38.114Z,2.00
2022-10-26T03:30:05.377Z,2.67
2022-10-26T03:32:32.056Z,2.15
2022-10-26T03:34:58.755Z,2.85
2022-10-26T03:37:25.469Z,2.45
2022-10-26T03:39:52.109Z,2.67
2022-10-26T03:42:18.825Z,2.30
2022-10-26T03:44:47.174Z,2.55
2022-10-26T03:47:13.897Z,2.63
2022-10-26T03:49:40.625Z,3.42
2022-10-26T03:52:07.328Z,2.83
2022-10-26T03:54:34.066Z,2.83
2022-10-26T03:57:00.896Z,2.28
2022-10-26T03:59:27.598Z,2.30
2022-10-26T04:01:56.903Z,2.13
2022-10-26T04:04:24.964Z,2.60
2022-10-26T04:06:52.146Z,4.22
2022-10-26T04:09:18.876Z,2.42
2022-10-26T04:11:45.589Z,2.55
2022-10-26T04:14:12.253Z,2.65
2022-10-26T04:16:38.998Z,3.05
2022-10-26T04:19:05.760Z,2.30
2022-10-26T04:21:35.596Z,2.33
2022-10-26T04:24:02.426Z,2.58
2022-10-26T04:26:29.300Z,2.80
2022-10-26T04:28:55.991Z,3.38
2022-10-26T04:31:22.670Z,2.38
2022-10-26T04:33:49.397Z,2.10
2022-10-26T04:36:16.092Z,2.20
2022-10-26T04:38:42.800Z,2.40
2022-10-26T04:41:09.505Z,2.53
2022-10-26T04:43:36.175Z,3.40
2022-10-26T04:46:02.872Z,3.05
2022-10-26T04:48:29.625Z,3.58
2022-10-26T04:50:59.730Z,3.08
2022-10-26T04:53:26.865Z,2.58
2022-10-26T04:56:00.469Z,2.60
2022-10-26T04:58:28.069Z,3.55
2022-10-26T05:00:55.133Z,1.98
2022-10-26T05:03:21.951Z,2.65
2022-10-26T05:05:48.710Z,2.47
2022-10-26T05:08:15.607Z,2.90
2022-10-26T05:10:42.653Z,2.58
2022-10-26T05:13:09.362Z,2.75
2022-10-26T05:15:36.018Z,2.67
2022-10-26T05:18:03.901Z,2.35
2022-10-26T05:20:31.463Z,2.00
2022-10-26T05:22:58.940Z,2.08
2022-10-26T05:25:26.034Z,2.70
2022-10-26T05:27:52.679Z,1.98
2022-10-26T05:30:19.412Z,3.20
2022-10-26T05:32:53.018Z,2.70
2022-10-26T05:35:19.816Z,2.80
2022-10-26T05:37:46.578Z,2.80
2022-10-26T05:40:13.335Z,2.22
2022-10-26T05:42:40.023Z,2.38
2022-10-26T05:45:07.150Z,2.10
2022-10-26T05:47:37.620Z,2.13
2022-10-26T05:50:04.570Z,2.63
2022-10-26T05:52:31.284Z,2.88
2022-10-26T05:54:57.989Z,2.70
2022-10-26T05:57:24.917Z,1.67
2022-10-26T05:59:51.968Z,2.35
2022-10-26T06:02:41.753Z,2.20
2022-10-26T06:05:11.110Z,2.55
2022-10-26T06:07:37.947Z,2.10
2022-10-26T06:10:05.357Z,2.47
2022-10-26T06:12:32.400Z,5.28
2022-10-26T06:14:59.510Z,2.03
2022-10-26T06:17:35.549Z,2.28
2022-10-26T06:22:46.163Z,2.13
2022-10-26T06:25:34.610Z,2.83
2022-10-26T06:28:19.838Z,1.95
2022-10-26T06:30:46.612Z,2.08
2022-10-26T06:33:25.005Z,2.50
2022-10-26T06:36:20.562Z,1.70
2022-10-26T06:38:48.226Z,2.92
2022-10-26T06:41:15.537Z,2.65
2022-10-26T06:43:42.645Z,2.50
2022-10-26T06:46:24.266Z,1.77
2022-10-26T06:49:12.519Z,2.53
2022-10-26T06:51:47.073Z,2.47
2022-10-26T06:54:46.187Z,2.22
2022-10-26T06:57:14.232Z,2.45
2022-10-26T06:59:50.684Z,1.70
2022-10-26T07:02:17.820Z,2.03
2022-10-26T07:04:44.936Z,2.92
2022-10-26T07:07:12.764Z,2.08
2022-10-26T07:09:39.600Z,2.53
2022-10-26T07:12:06.565Z,1.92
2022-10-26T07:14:33.368Z,2.33
2022-10-26T07:17:00.210Z,1.98
2022-10-26T07:19:26.930Z,2.33
2022-10-26T07:21:57.011Z,2.03
2022-10-26T07:24:24.125Z,2.88
2022-10-26T07:26:50.929Z,2.65
2022-10-26T07:29:18.405Z,2.28
2022-10-26T07:31:45.158Z,2.05
2022-10-26T07:34:11.927Z,1.83
2022-10-26T07:36:39.465Z,2.25
2022-10-26T07:39:07.088Z,2.03
2022-10-26T07:41:34.010Z,2.17
2022-10-26T07:44:00.801Z,2.20
2022-10-26T07:46:27.572Z,2.20
2022-10-26T07:48:54.386Z,2.17
2022-10-26T07:51:21.222Z,1.92
2022-10-26T07:53:47.892Z,2.90
2022-10-26T07:56:14.664Z,2.88
2022-10-26T07:58:41.383Z,2.28
2022-10-26T08:01:09.538Z,1.58
2022-10-26T08:03:36.299Z,2.60
2022-10-26T08:06:04.820Z,2.17
2022-10-26T08:08:32.220Z,1.77
2022-10-26T08:10:59.130Z,3.70
2022-10-26T08:13:25.860Z,2.60
2022-10-26T08:16:03.078Z,2.95
2022-10-26T08:18:29.986Z,2.83
2022-10-26T08:21:10.209Z,3.00
2022-10-26T08:23:38.283Z,2.53
2022-10-26T08:26:05.089Z,2.85
2022-10-26T08:28:31.762Z,3.70
2022-10-26T08:30:58.485Z,3.10
2022-10-26T08:33:25.466Z,3.17
2022-10-26T08:35:58.902Z,2.70
2022-10-26T08:38:25.648Z,2.50
2022-10-26T08:40:52.677Z,2.88
2022-10-26T08:43:24.363Z,2.30
2022-10-26T08:45:54.964Z,3.33
2022-10-26T08:48:24.371Z,3.67
2022-10-26T08:50:56.056Z,4.13
2022-10-26T08:53:43.387Z,3.20
2022-10-26T08:56:22.242Z,3.22
2022-10-26T08:58:56.413Z,2.85
2022-10-26T09:01:23.519Z,3.42
2022-10-26T09:03:50.343Z,2.58
2022-10-26T09:06:21.577Z,2.80
2022-10-26T09:08:57.427Z,3.03
2022-10-26T09:11:39.413Z,3.33
2022-10-26T09:14:38.404Z,3.88
2022-10-26T09:17:20.472Z,3.45
2022-10-26T09:20:05.885Z,2.03
2022-10-26T09:22:41.902Z,3.33
2022-10-26T09:25:20.584Z,3.33
2022-10-26T09:27:56.215Z,3.38
2022-10-26T09:30:23.042Z,2.35
2022-10-26T09:32:56.432Z,2.78
2022-10-26T09:35:31.625Z,3.13
2022-10-26T09:38:10.838Z,2.70
2022-10-26T09:40:42.507Z,3.20
2022-10-26T09:43:12.345Z,2.42
2022-10-26T09:45:50.734Z,2.60
2022-10-26T09:48:21.553Z,2.28
2022-10-26T09:50:49.477Z,2.33
2022-10-26T09:53:16.385Z,2.65
2022-10-26T09:55:45.670Z,4.00
2022-10-26T09:58:27.857Z,2.20
2022-10-26T10:00:54.579Z,2.45
2022-10-26T10:03:28.936Z,2.03
2022-10-26T10:06:21.933Z,2.55
2022-10-26T10:09:17.961Z,3.45
2022-10-26T10:12:02.682Z,3.72
2022-10-26T10:14:36.142Z,2.38
2022-10-26T10:19:48.492Z,3.72
2022-10-26T10:22:15.389Z,2.97
2022-10-26T10:24:43.346Z,2.45
2022-10-26T10:27:13.311Z,2.45
2022-10-26T10:29:41.313Z,3.20
2022-10-26T10:32:15.174Z,2.83
2022-10-26T10:34:42.159Z,3.05
2022-10-26T10:37:26.044Z,2.78
2022-10-26T10:42:24.152Z,3.05
2022-10-26T10:44:52.304Z,2.97
2022-10-26T10:47:29.448Z,2.53
2022-10-26T10:50:07.642Z,2.45
2022-10-26T10:52:35.413Z,3.58
2022-10-26T10:55:04.914Z,3.40
2022-10-26T10:57:58.382Z,2.72
2022-10-26T11:00:25.203Z,3.65
2022-10-26T11:03:23.325Z,3.25
2022-10-26T11:06:10.986Z,3.25
2022-10-26T11:08:55.859Z,2.78
2022-10-26T11:11:32.976Z,3.28
2022-10-26T11:14:02.473Z,3.55
2022-10-26T11:16:31.415Z,4.40
2022-10-26T11:19:22.972Z,3.97
2022-10-26T11:21:53.385Z,2.88
2022-10-26T11:24:20.033Z,2.20
2022-10-26T11:26:55.759Z,3.40
2022-10-26T11:29:22.519Z,3.40
2022-10-26T11:32:20.099Z,2.70
2022-10-26T11:35:08.676Z,2.33
2022-10-26T11:37:53.469Z,4.10
2022-10-26T11:40:45.364Z,4.72
2022-10-26T11:43:40.346Z,2.30
2022-10-26T11:46:19.274Z,3.42
2022-10-26T11:48:52.030Z,2.78
2022-10-26T11:51:31.675Z,2.20
2022-10-26T11:53:58.537Z,3.17
2022-10-26T11:56:33.465Z,2.38
2022-10-26T11:59:00.275Z,5.03
2022-10-26T12:01:27.063Z,2.95
2022-10-26T12:03:53.791Z,2.28
2022-10-26T12:06:26.911Z,2.92
2022-10-26T12:09:16.362Z,3.17
2022-10-26T12:11:50.796Z,4.07
2022-10-26T12:14:29.463Z,5.10
2022-10-26T12:17:11.429Z,2.97
2022-10-26T12:19:51.770Z,2.83
2022-10-26T12:22:20.105Z,2.33
2022-10-26T12:24:47.666Z,3.03
2022-10-26T12:27:39.458Z,3.42
2022-10-26T12:30:15.751Z,3.10
2022-10-26T12:32:45.346Z,3.20
2022-10-26T12:35:33.761Z,3.72
2022-10-26T12:38:01.215Z,3.83
2022-10-26T12:40:31.123Z,3.85
2022-10-26T12:42:58.350Z,5.35
2022-10-26T12:45:25.103Z,4.10
2022-10-26T12:47:51.977Z,3.25
2022-10-26T12:50:23.063Z,3.17
2022-10-26T12:52:50.552Z,4.35
2022-10-26T12:55:41.856Z,3.13
2022-10-26T12:58:29.812Z,4.78
2022-10-26T13:00:59.615Z,3.28
2022-10-26T13:03:57.153Z,3.55
2022-10-26T13:07:04.599Z,4.63
2022-10-26T13:09:33.077Z,5.47
2022-10-26T13:12:01.409Z,3.63
2022-10-26T13:14:32.232Z,3.00
2022-10-26T13:16:59.285Z,2.97
2022-10-26T13:19:36.634Z,3.38
2022-10-26T13:22:03.703Z,3.55
2022-10-26T13:24:31.655Z,5.20
2022-10-26T13:27:08.100Z,2.58
2022-10-26T13:30:03.589Z,4.15
2022-10-26T13:32:30.833Z,7.93
2022-10-26T13:34:59.124Z,4.28
2022-10-26T13:37:27.242Z,2.30
2022-10-26T13:39:55.845Z,6.13
2022-10-26T13:42:26.161Z,2.78
2022-10-26T13:44:55.078Z,3.13
2022-10-26T13:47:32.993Z,3.03
2022-10-26T13:50:03.226Z,2.90
2022-10-26T13:52:34.344Z,2.78
2022-10-26T13:55:09.091Z,3.17
2022-10-26T13:57:36.296Z,2.38
2022-10-26T14:00:09.227Z,3.50
2022-10-26T14:02:36.360Z,2.40
2022-10-26T14:05:05.051Z,3.95
2022-10-26T14:07:57.474Z,2.38
2022-10-26T14:10:28.583Z,3.42
2022-10-26T14:12:55.651Z,2.72
2022-10-26T14:15:27.297Z,4.07
2022-10-26T14:17:54.384Z,3.83
2022-10-26T14:20:22.872Z,3.03
2022-10-26T14:22:49.901Z,3.63
2022-10-26T14:25:57.971Z,3.60
2022-10-26T14:28:27.625Z,2.53
2022-10-26T14:30:54.403Z,3.53
2022-10-26T14:33:26.291Z,2.88
2022-10-26T14:35:53.009Z,2.72
2022-10-26T14:38:22.260Z,3.38
2022-10-26T14:40:49.123Z,2.92
2022-10-26T14:43:21.200Z,3.53
2022-10-26T14:45:49.918Z,3.72
2022-10-26T14:48:33.346Z,4.53
2022-10-26T14:51:04.090Z,3.60
2022-10-26T14:53:34.171Z,4.38
2022-10-26T14:56:01.254Z,2.85
2022-10-26T14:58:32.389Z,3.88
2022-10-26T15:01:25.386Z,4.13
2022-10-26T15:04:21.690Z,3.92
2022-10-26T15:06:49.169Z,3.55
2022-10-26T15:09:32.837Z,4.10
2022-10-26T15:12:00.040Z,2.55
2022-10-26T15:14:26.860Z,3.03
2022-10-26T15:16:55.328Z,3.88
2022-10-26T15:19:24.102Z,3.33
2022-10-26T15:21:52.312Z,3.55
2022-10-26T15:24:38.907Z,3.90
2022-10-26T15:27:13.317Z,3.22
2022-10-26T15:29:42.525Z,2.92
2022-10-26T15:32:25.561Z,3.88
2022-10-26T15:35:11.004Z,3.30
2022-10-26T15:37:41.015Z,3.95
2022-10-26T15:40:08.151Z,3.88
2022-10-26T15:42:39.319Z,4.53
2022-10-26T15:45:22.349Z,3.92
2022-10-26T15:47:51.847Z,3.33
2022-10-26T15:50:22.444Z,3.42
2022-10-26T15:52:49.648Z,4.43
2022-10-26T15:55:17.651Z,4.28
2022-10-26T15:57:44.492Z,4.78
2022-10-26T16:00:15.260Z,2.95
2022-10-26T16:02:42.369Z,3.45
2022-10-26T16:05:09.290Z,3.55
2022-10-26T16:07:35.984Z,5.30
2022-10-26T16:10:02.704Z,4.32
2022-10-26T16:12:29.391Z,3.22
2022-10-26T16:15:05.052Z,3.55
2022-10-26T16:17:33.458Z,3.10
2022-10-26T16:20:02.289Z,4.65
2022-10-26T16:22:31.051Z,3.10
2022-10-26T16:24:59.447Z,3.50
2022-10-26T16:27:26.235Z,2.35
2022-10-26T16:29:52.963Z,3.97
2022-10-26T16:32:19.826Z,3.40
2022-10-26T16:34:46.530Z,3.65
2022-10-26T16:37:13.208Z,6.47
2022-10-26T16:39:40.019Z,4.60
2022-10-26T16:42:06.883Z,3.40
2022-10-26T16:44:33.624Z,4.43
2022-10-26T16:47:00.456Z,3.63
2022-10-26T16:49:27.193Z,3.65
2022-10-26T16:51:53.930Z,2.88
2022-10-26T16:54:20.587Z,5.10
2022-10-26T16:56:47.304Z,4.00
2022-10-26T16:59:14.030Z,3.42
2022-10-26T17:01:40.861Z,4.55
2022-10-26T17:04:07.700Z,3.88
2022-10-26T17:06:34.399Z,3.42
2022-10-26T17:09:01.214Z,3.13
2022-10-26T17:11:27.908Z,4.50
2022-10-26T17:13:54.851Z,2.92
2022-10-26T17:16:22.371Z,2.85
2022-10-26T17:18:49.352Z,4.50
2022-10-26T17:21:17.558Z,4.55
2022-10-26T17:23:44.403Z,3.47
2022-10-26T17:26:12.102Z,3.17
2022-10-26T17:28:39.085Z,5.90
2022-10-26T17:31:09.961Z,4.45
2022-10-26T17:33:37.668Z,3.78
2022-10-26T17:36:05.449Z,3.58
2022-10-26T17:38:33.184Z,3.47
2022-10-26T17:41:04.130Z,2.92
2022-10-26T17:43:31.943Z,3.85
2022-10-26T17:46:00.282Z,3.38
2022-10-26T17:48:28.558Z,5.22
2022-10-26T17:50:55.366Z,3.20
2022-10-26T17:53:22.169Z,3.35
2022-10-26T17:55:48.992Z,3.33
2022-10-26T17:58:16.077Z,4.13
2022-10-26T18:00:46.645Z,3.65
2022-10-26T18:03:14.731Z,4.45
2022-10-26T18:05:41.461Z,4.80
2022-10-26T18:08:08.213Z,4.47
2022-10-26T18:10:38.520Z,3.83
2022-10-26T18:13:05.362Z,3.15
2022-10-26T18:15:34.517Z,3.28
2022-10-26T18:18:01.202Z,3.17
2022-10-26T18:20:27.897Z,3.38
2022-10-26T18:22:55.222Z,3.50
2022-10-26T18:25:21.988Z,3.03
2022-10-26T18:27:48.827Z,3.05
2022-10-26T18:30:15.517Z,3.22
2022-10-26T18:32:42.380Z,3.97
2022-10-26T18:35:09.130Z,4.15
2022-10-26T18:37:35.858Z,4.00
2022-10-26T18:40:02.595Z,3.33
2022-10-26T18:42:29.296Z,3.50
2022-10-26T18:45:00.751Z,3.83
2022-10-26T18:47:29.062Z,4.43
2022-10-26T18:49:55.966Z,3.67
2022-10-26T18:52:29.911Z,3.85
2022-10-26T18:54:56.821Z,4.38
2022-10-26T18:57:28.827Z,4.65
2022-10-26T18:59:55.726Z,4.03
2022-10-26T19:02:23.028Z,3.53
2022-10-26T19:04:51.582Z,4.95
2022-10-26T19:07:18.330Z,3.95
2022-10-26T19:09:45.118Z,4.88
2022-10-26T19:12:11.868Z,3.95
2022-10-26T19:14:38.598Z,4.68
2022-10-26T19:17:05.315Z,4.03
2022-10-26T19:19:31.999Z,4.30
2022-10-26T19:22:00.275Z,5.00
2022-10-26T19:24:27.076Z,3.35
2022-10-26T19:26:54.209Z,5.43
2022-10-26T19:29:21.026Z,4.55
2022-10-26T19:31:50.519Z,4.10
2022-10-26T19:34:17.552Z,4.57
2022-10-26T19:36:45.985Z,4.82
2022-10-26T19:39:14.477Z,4.82
2022-10-26T19:41:41.312Z,4.43
2022-10-26T19:44:09.366Z,5.95
2022-10-26T19:46:36.205Z,4.25
2022-10-26T19:49:02.922Z,5.38
2022-10-26T19:51:30.314Z,4.18
2022-10-26T19:54:03.127Z,5.20
2022-10-26T19:58:57.932Z,4.47
2022-10-26T20:01:24.897Z,4.32
2022-10-26T20:03:51.742Z,5.30
2022-10-26T20:06:18.533Z,4.82
2022-10-26T20:08:46.711Z,3.92
2022-10-26T20:11:15.647Z,4.50
2022-10-26T20:13:42.967Z,4.32
2022-10-26T20:16:09.763Z,2.95
2022-10-26T20:18:36.470Z,6.18
2022-10-26T20:21:10.423Z,3.50
2022-10-26T20:23:37.283Z,4.18
2022-10-26T20:28:31.158Z,4.15
2022-10-26T20:30:59.623Z,4.07
2022-10-26T20:33:27.305Z,5.55
2022-10-26T20:35:58.264Z,4.32
2022-10-26T20:38:25.598Z,4.05
2022-10-26T20:40:57.362Z,4.07
2022-10-26T20:43:24.935Z,5.10
2022-10-26T20:45:52.326Z,4.82
2022-10-26T20:48:19.289Z,5.07
2022-10-26T20:50:54.796Z,4.63
2022-10-26T20:53:29.373Z,4.70
2022-10-26T20:55:58.552Z,5.28
2022-10-26T20:58:41.399Z,4.10
2022-10-26T21:01:26.072Z,5.57
2022-10-26T21:03:53.685Z,5.70
2022-10-26T21:06:20.721Z,4.32
2022-10-26T21:08:51.584Z,3.65
2022-10-26T21:11:19.141Z,4.47
2022-10-26T21:13:47.028Z,4.22
2022-10-26T21:16:14.268Z,4.30
2022-10-26T21:18:41.235Z,4.18
2022-10-26T21:21:08.043Z,5.38
2022-10-26T21:23:36.376Z,5.20
2022-10-26T21:26:03.187Z,5.07
2022-10-26T21:28:37.583Z,4.05
2022-10-26T21:31:05.144Z,4.75
2022-10-26T21:33:32.226Z,6.50
2022-10-26T21:35:59.934Z,6.32
2022-10-26T21:38:27.675Z,5.20
2022-10-26T21:41:17.874Z,4.72
2022-10-26T21:43:46.542Z,5.47
2022-10-26T21:46:13.551Z,4.53
2022-10-26T21:48:41.114Z,4.63
2022-10-26T21:51:11.247Z,4.75
2022-10-26T21:53:38.121Z,5.35
2022-10-26T21:56:12.257Z,4.30
2022-10-26T21:58:39.004Z,5.97
2022-10-26T22:01:10.611Z,8.07
2022-10-26T22:03:37.596Z,6.53
2022-10-26T22:06:04.616Z,4.90
2022-10-26T22:08:31.391Z,5.28
2022-10-26T22:10:58.187Z,5.63
2022-10-26T22:13:25.172Z,5.95
2022-10-26T22:16:02.896Z,5.65
2022-10-26T22:18:29.791Z,4.90
2022-10-26T22:20:57.908Z,6.05
2022-10-26T22:23:24.626Z,6.55
2022-10-26T22:25:51.461Z,5.28
2022-10-26T22:28:18.153Z,4.00
2022-10-26T22:30:44.819Z,3.90
2022-10-26T22:33:12.532Z,2.83
2022-10-26T22:35:39.199Z,3.13
2022-10-26T22:38:05.903Z,3.22
2022-10-26T22:40:32.564Z,3.53
2022-10-26T22:42:59.286Z,3.20
2022-10-26T22:45:25.951Z,3.75
2022-10-26T22:47:52.632Z,4.03
2022-10-26T22:50:19.307Z,4.10
2022-10-26T22:52:46.014Z,3.80
2022-10-26T22:55:12.689Z,3.97
2022-10-26T22:57:39.745Z,4.32
2022-10-26T23:00:07.320Z,4.50
2022-10-26T23:02:33.983Z,4.07
2022-10-26T23:05:00.698Z,3.88
2022-10-26T23:07:29.256Z,4.45
2022-10-26T23:09:55.926Z,5.60
2022-10-26T23:12:22.615Z,4.10
2022-10-26T23:14:49.317Z,4.47
2022-10-26T23:17:16.052Z,4.28
2022-10-26T23:19:42.772Z,2.72
2022-10-26T23:22:09.443Z,3.40
2022-10-26T23:24:36.106Z,3.45
2022-10-26T23:27:02.863Z,4.10
2022-10-26T23:29:29.530Z,3.42
2022-10-26T23:31:56.268Z,3.40
2022-10-26T23:34:22.996Z,3.40
2022-10-26T23:36:50.600Z,2.72
2022-10-26T23:39:17.346Z,2.20
2022-10-26T23:41:44.064Z,3.60
2022-10-26T23:44:10.814Z,2.83
2022-10-26T23:46:37.478Z,2.60
2022-10-26T23:49:04.168Z,2.47
2022-10-26T23:51:30.937Z,3.85
2022-10-26T23:53:57.738Z,4.43
2022-10-26T23:56:24.509Z,4.32
2022-10-26T23:58:51.375Z,4.10
